Thorndike, Massachusetts
Current Conditions -  °F | °C
As of 10:58 AM on Friday 31 Oct 2014 (Local Time) from KCEF Reporting Station
Overcast Overcast  
Wind Chill: 44°   Ceiling: 5000
Heat Index: 46°   Visibility: 10mi
Dew Point: 37°   Wind: 5mph
Humidity: 72%   Direction: 350°N
Pressure: 30.02"   Gusts: NA
Location:  42.19°N, 72.34°W
Report Text: KCEF 311458Z AUTO 35004KT 10SM OVC050 08/03 A3002 RMK AO2 SLP173 T00770030 58004
Loading
Personal Weather Stations






























Interactive Weather Map
Tropical Storm Tracking
New forecast layout! Learn more

10-Day Weather Forecast

Advertisements
Track Severe Weather on mobile